Time;durP1;ratioP1;P1;durP2;ratioP2;P2;SDS_P1;SDS_P2;PMS_P1;PMS_P2;Temp;Humidity;BMP_temperature;BMP_pressure;BME280_temperature;BME280_humidity;BME280_pressure;Samples;Min_cycle;Max_cycle;Signal;HPM_P1;HPM_P2
2022/01/07 00:00:28;;;;;;;11.67;6.10;;;-0.70;93.70;;;;;;5065947;28;20457;-55
2022/01/07 00:02:57;;;;;;;9.70;5.97;;;-0.60;76.00;;;;;;5064574;28;20531;-55
2022/01/07 00:05:26;;;;;;;11.33;6.20;;;-0.70;21.50;;;;;;5066029;28;20808;-56
2022/01/07 00:07:52;;;;;;;14.13;6.30;;;-0.80;29.50;;;;;;5068927;28;20459;-56
2022/01/07 00:10:21;;;;;;;9.77;6.20;;;-0.80;26.90;;;;;;5068551;28;20484;-57
2022/01/07 00:12:48;;;;;;;13.17;7.73;;;-0.80;22.00;;;;;;5062629;28;20489;-56
2022/01/07 00:15:16;;;;;;;10.87;6.17;;;-0.80;99.90;;;;;;5067841;28;20500;-57
2022/01/07 00:17:43;;;;;;;13.90;7.40;;;-0.80;92.80;;;;;;5066012;28;20820;-54
2022/01/07 00:20:12;;;;;;;9.60;6.10;;;-0.80;99.90;;;;;;5068764;28;20472;-55
2022/01/07 00:22:40;;;;;;;17.23;5.90;;;-0.80;99.90;;;;;;5069640;28;20550;-55
2022/01/07 00:25:09;;;;;;;10.70;5.60;;;-0.80;99.90;;;;;;5058546;28;20500;-55
2022/01/07 00:27:36;;;;;;;13.50;5.37;;;-0.80;72.00;;;;;;5064036;28;20499;-55
2022/01/07 00:30:04;;;;;;;9.53;5.10;;;-0.80;25.00;;;;;;5068317;28;20485;-56
2022/01/07 00:32:32;;;;;;;11.17;5.37;;;-0.80;24.00;;;;;;5067898;28;20512;-55
2022/01/07 00:34:58;;;;;;;12.60;5.60;;;-0.80;26.10;;;;;;5063243;28;20523;-55
2022/01/07 00:37:25;;;;;;;8.73;4.80;;;-0.80;25.60;;;;;;5069083;28;20496;-54
2022/01/07 00:39:52;;;;;;;10.47;4.80;;;-0.80;25.00;;;;;;5067603;28;20982;-56
2022/01/07 00:42:19;;;;;;;18.33;5.63;;;-0.90;24.70;;;;;;5069634;28;20508;-56
2022/01/07 00:44:46;;;;;;;8.00;4.70;;;-0.80;26.40;;;;;;5068395;28;20499;-56
2022/01/07 00:47:12;;;;;;;15.37;4.90;;;-0.90;31.70;;;;;;5060323;28;20500;-56
2022/01/07 00:49:40;;;;;;;11.73;5.50;;;-0.90;38.20;;;;;;5062716;28;20496;-56
2022/01/07 00:52:07;;;;;;;12.10;5.10;;;-0.90;36.40;;;;;;5068086;28;20626;-56
2022/01/07 00:54:34;;;;;;;11.47;6.37;;;-0.90;31.10;;;;;;5066491;28;20556;-55
2022/01/07 00:57:00;;;;;;;18.23;5.47;;;-0.90;31.80;;;;;;5063032;28;20497;-55
2022/01/07 00:59:27;;;;;;;10.87;4.93;;;-0.90;32.50;;;;;;5070785;28;20493;-54
2022/01/07 01:01:54;;;;;;;9.20;5.20;;;-0.80;31.90;;;;;;5065046;28;20509;-55
2022/01/07 01:04:21;;;;;;;12.00;5.30;;;-0.90;43.00;;;;;;5072295;28;20492;-55
2022/01/07 01:06:49;;;;;;;11.47;5.27;;;-0.80;45.20;;;;;;5071294;28;20492;-54
2022/01/07 01:09:15;;;;;;;13.20;4.93;;;-0.90;44.30;;;;;;5066467;28;20493;-55
2022/01/07 01:11:42;;;;;;;9.43;5.23;;;-0.90;42.90;;;;;;5071068;28;20575;-55
2022/01/07 01:14:09;;;;;;;14.20;4.80;;;-0.90;46.00;;;;;;5071425;28;20496;-56
2022/01/07 01:16:37;;;;;;;14.70;5.13;;;-0.90;42.80;;;;;;5069413;28;20488;-56
2022/01/07 01:19:05;;;;;;;13.47;5.37;;;-0.90;44.10;;;;;;5070985;28;20465;-56
2022/01/07 01:21:32;;;;;;;10.50;4.30;;;-0.90;48.50;;;;;;5074742;28;20500;-56
2022/01/07 01:24:00;;;;;;;15.93;4.50;;;-0.90;47.30;;;;;;5072572;28;21124;-56
2022/01/07 01:26:26;;;;;;;11.43;4.63;;;-0.90;50.50;;;;;;5073602;28;20487;-56
2022/01/07 01:28:53;;;;;;;11.13;4.70;;;-1.00;51.30;;;;;;5071040;28;20484;-56
2022/01/07 01:31:20;;;;;;;13.53;4.80;;;-1.00;56.70;;;;;;5067613;28;20530;-56
2022/01/07 01:33:47;;;;;;;10.67;4.70;;;-1.00;53.70;;;;;;5072523;28;20460;-56
2022/01/07 01:36:14;;;;;;;12.67;5.10;;;-1.00;51.40;;;;;;5077138;28;20496;-56
2022/01/07 01:38:42;;;;;;;9.63;3.97;;;-1.00;47.10;;;;;;5068062;28;20457;-56
2022/01/07 01:41:10;;;;;;;8.77;3.93;;;-1.00;51.00;;;;;;5070708;28;20465;-57
2022/01/07 01:43:37;;;;;;;14.53;4.70;;;-1.00;51.20;;;;;;5066081;28;20465;-56
2022/01/07 01:46:04;;;;;;;9.80;5.20;;;-1.00;46.40;;;;;;5066583;28;20495;-55
2022/01/07 01:48:31;;;;;;;12.87;4.53;;;-1.00;45.40;;;;;;5063175;28;20557;-56
2022/01/07 01:50:57;;;;;;;9.90;5.50;;;-0.90;46.60;;;;;;5072731;28;20518;-56
2022/01/07 01:53:25;;;;;;;12.47;4.40;;;-0.90;47.90;;;;;;5074150;28;21047;-56
2022/01/07 01:55:52;;;;;;;10.40;4.80;;;-0.90;52.50;;;;;;5067937;28;21974;-56
2022/01/07 01:58:20;;;;;;;13.17;4.30;;;-0.90;52.30;;;;;;5066583;28;20539;-55
2022/01/07 02:00:47;;;;;;;12.67;4.03;;;-0.90;55.50;;;;;;5066260;28;20489;-56
2022/01/07 02:03:14;;;;;;;10.60;4.43;;;-0.90;56.30;;;;;;5070799;28;20508;-55
2022/01/07 02:05:40;;;;;;;11.80;4.27;;;-0.80;50.80;;;;;;5070174;28;20500;-55
2022/01/07 02:08:08;;;;;;;12.70;4.40;;;-0.80;58.10;;;;;;5062369;28;20478;-56
2022/01/07 02:10:34;;;;;;;13.77;4.83;;;-0.80;62.60;;;;;;5069546;28;20984;-57
2022/01/07 02:13:01;;;;;;;13.87;4.17;;;-0.80;68.20;;;;;;5058377;28;20520;-56
2022/01/07 02:15:29;;;;;;;9.33;3.93;;;-0.80;75.60;;;;;;5066920;28;20504;-56
2022/01/07 02:17:57;;;;;;;9.13;5.10;;;-0.80;77.40;;;;;;5067790;28;20477;-54
2022/01/07 02:20:28;;;;;;;14.93;5.03;;;-0.80;72.20;;;;;;5072045;28;20491;-56
2022/01/07 02:22:55;;;;;;;8.53;4.20;;;-0.80;66.30;;;;;;5070392;28;20472;-56
2022/01/07 02:25:22;;;;;;;13.77;5.67;;;-0.80;68.60;;;;;;5064212;28;20493;-56
2022/01/07 02:27:49;;;;;;;9.67;4.87;;;-0.80;67.10;;;;;;5067228;28;20985;-56
2022/01/07 02:30:19;;;;;;;10.20;4.53;;;-0.80;70.70;;;;;;5063209;28;21650;-56
2022/01/07 02:32:47;;;;;;;13.37;4.97;;;-0.80;72.60;;;;;;5072405;28;20571;-56
2022/01/07 02:35:14;;;;;;;9.10;5.00;;;-0.80;71.60;;;;;;5062625;28;21010;-56
2022/01/07 02:37:42;;;;;;;10.83;4.43;;;-0.80;64.70;;;;;;5072700;28;20551;-55
2022/01/07 02:40:11;;;;;;;8.70;4.97;;;-0.80;64.80;;;;;;5066389;28;20561;-56
2022/01/07 02:42:38;;;;;;;19.77;6.50;;;-0.80;66.90;;;;;;5073235;28;20456;-56
2022/01/07 02:45:08;;;;;;;8.80;3.97;;;-0.80;65.40;;;;;;5067451;28;20548;-55
2022/01/07 02:47:45;;;;;;;15.17;5.67;;;-0.70;62.80;;;;;;5071112;28;20465;-57
2022/01/07 02:50:12;;;;;;;6.20;3.70;;;-0.70;71.40;;;;;;5062887;28;20551;-56
2022/01/07 02:52:39;;;;;;;14.60;4.70;;;-0.70;70.10;;;;;;5070252;28;20575;-56
2022/01/07 02:55:08;;;;;;;11.23;4.57;;;-0.70;74.20;;;;;;5066218;28;20541;-57
2022/01/07 02:57:34;;;;;;;14.63;4.93;;;-0.70;71.70;;;;;;5068097;28;20548;-55
2022/01/07 03:00:02;;;;;;;11.37;4.57;;;-0.80;71.60;;;;;;5072472;28;20541;-56
2022/01/07 03:02:29;;;;;;;7.80;4.57;;;-0.70;70.90;;;;;;5064882;28;20473;-56
2022/01/07 03:04:55;;;;;;;13.37;5.17;;;-0.70;73.20;;;;;;5063375;28;20468;-56
2022/01/07 03:07:22;;;;;;;16.00;5.20;;;-0.80;71.40;;;;;;5063866;28;20648;-55
2022/01/07 03:09:48;;;;;;;8.40;4.50;;;-0.80;77.70;;;;;;5064504;28;20561;-57
2022/01/07 03:12:16;;;;;;;17.03;4.70;;;-0.80;73.10;;;;;;5070046;28;20572;-55
2022/01/07 03:14:43;;;;;;;11.23;5.00;;;-0.80;74.00;;;;;;5062717;28;20488;-55
2022/01/07 03:17:09;;;;;;;13.87;5.93;;;-0.80;70.40;;;;;;5072125;28;20976;-56
2022/01/07 03:19:36;;;;;;;10.80;4.27;;;-0.80;69.10;;;;;;5069227;28;20964;-56
2022/01/07 03:22:03;;;;;;;13.03;4.40;;;-0.70;69.20;;;;;;5068542;28;20567;-56
2022/01/07 03:24:29;;;;;;;15.60;5.40;;;-0.80;70.40;;;;;;5068323;28;20489;-55
2022/01/07 03:26:56;;;;;;;13.33;4.30;;;-0.70;72.70;;;;;;5068338;28;20571;-57
2022/01/07 03:29:24;;;;;;;13.03;4.73;;;-0.70;76.40;;;;;;5070147;28;20559;-57
2022/01/07 03:31:50;;;;;;;9.50;4.60;;;-0.70;82.90;;;;;;5061905;28;20644;-55
2022/01/07 03:34:17;;;;;;;7.53;3.63;;;-0.70;85.30;;;;;;5067705;28;20555;-55
2022/01/07 03:36:43;;;;;;;15.80;5.37;;;-0.70;86.80;;;;;;5060540;28;20493;-56
2022/01/07 03:39:10;;;;;;;8.27;4.47;;;-0.60;88.80;;;;;;5070412;28;20496;-56
2022/01/07 03:41:36;;;;;;;13.47;4.90;;;-0.60;91.70;;;;;;5066943;28;20564;-55
2022/01/07 03:44:03;;;;;;;10.57;4.10;;;-0.60;94.70;;;;;;5066014;28;20910;-56
2022/01/07 03:46:31;;;;;;;13.33;5.20;;;-0.60;88.50;;;;;;5065939;28;20569;-55
2022/01/07 03:48:58;;;;;;;9.47;4.00;;;-0.60;95.50;;;;;;5060647;28;20486;-56
2022/01/07 03:51:24;;;;;;;7.50;4.40;;;-0.60;98.20;;;;;;5060881;28;20606;-55
2022/01/07 03:53:51;;;;;;;7.77;4.17;;;-0.60;99.50;;;;;;5065370;28;20552;-55
2022/01/07 03:56:18;;;;;;;9.30;4.77;;;-0.60;99.40;;;;;;5063701;28;20532;-55
2022/01/07 03:58:45;;;;;;;8.40;4.87;;;-0.60;99.90;;;;;;5068294;28;20515;-56
2022/01/07 04:01:12;;;;;;;10.80;4.10;;;-0.50;98.70;;;;;;5067667;28;20543;-56
2022/01/07 04:03:40;;;;;;;17.53;3.63;;;-0.50;99.90;;;;;;5070290;28;20495;-56
2022/01/07 04:06:06;;;;;;;12.43;4.30;;;-0.50;99.90;;;;;;5068981;28;20539;-56
2022/01/07 04:08:33;;;;;;;16.60;4.70;;;-0.50;99.90;;;;;;5069451;28;20460;-56
2022/01/07 04:10:59;;;;;;;10.27;4.70;;;-0.50;99.90;;;;;;5064944;28;20881;-56
2022/01/07 04:13:26;;;;;;;6.23;4.30;;;-0.40;99.90;;;;;;5062607;28;20575;-56
2022/01/07 04:15:52;;;;;;;8.67;4.60;;;-0.40;99.90;;;;;;5069077;28;20500;-56
2022/01/07 04:18:19;;;;;;;11.80;4.93;;;-0.50;99.90;;;;;;5067489;28;20553;-55
2022/01/07 04:20:47;;;;;;;11.67;4.30;;;-0.40;99.90;;;;;;5069141;28;20492;-55
2022/01/07 04:23:14;;;;;;;11.73;5.30;;;-0.40;99.90;;;;;;5066365;28;20509;-55
2022/01/07 04:25:40;;;;;;;7.53;4.70;;;-0.40;99.90;;;;;;5065887;28;20467;-56
2022/01/07 04:28:08;;;;;;;13.63;5.07;;;-0.50;99.90;;;;;;5064449;28;20556;-56
2022/01/07 04:30:37;;;;;;;7.67;4.67;;;-0.40;99.90;;;;;;5065603;28;20556;-55
2022/01/07 04:33:04;;;;;;;10.30;4.90;;;-0.40;99.90;;;;;;5066600;28;20584;-55
2022/01/07 04:35:32;;;;;;;10.97;4.83;;;-0.30;99.90;;;;;;5067327;28;20473;-55
2022/01/07 04:38:00;;;;;;;10.10;4.50;;;-0.30;99.90;;;;;;5063092;28;20556;-56
2022/01/07 04:40:27;;;;;;;9.47;4.47;;;-0.30;99.90;;;;;;5061423;28;20520;-55
2022/01/07 04:42:54;;;;;;;8.43;5.03;;;-0.30;99.90;;;;;;5058458;28;21065;-55
2022/01/07 04:45:21;;;;;;;6.40;4.10;;;-0.30;99.90;;;;;;5065154;28;20457;-56
2022/01/07 04:47:48;;;;;;;13.00;5.37;;;-0.30;99.90;;;;;;5070682;28;20549;-57
2022/01/07 04:50:16;;;;;;;10.90;4.70;;;-0.30;99.90;;;;;;5064675;28;20497;-56
2022/01/07 04:52:44;;;;;;;14.30;6.07;;;-0.30;99.90;;;;;;5064379;28;20567;-56
2022/01/07 04:55:13;;;;;;;12.17;5.20;;;-0.20;99.90;;;;;;5065056;28;20947;-55
2022/01/07 04:57:39;;;;;;;8.83;5.17;;;-0.30;99.90;;;;;;5061454;28;20472;-55
2022/01/07 05:00:07;;;;;;;9.23;4.80;;;-0.20;99.90;;;;;;5062782;28;20544;-56
2022/01/07 05:02:34;;;;;;;14.27;7.60;;;-0.20;99.90;;;;;;5065208;28;21009;-57
2022/01/07 05:05:01;;;;;;;10.47;5.30;;;-0.20;99.90;;;;;;5066939;28;20487;-56
2022/01/07 05:07:27;;;;;;;11.27;4.90;;;-0.20;99.90;;;;;;5062401;28;20488;-55
2022/01/07 05:09:54;;;;;;;13.83;7.57;;;-0.20;99.90;;;;;;5063247;28;20547;-56
2022/01/07 05:12:22;;;;;;;9.87;5.00;;;-0.20;99.90;;;;;;5065303;28;20516;-56
2022/01/07 05:14:48;;;;;;;7.93;5.10;;;-0.20;99.90;;;;;;5070177;28;20547;-56
2022/01/07 05:17:15;;;;;;;10.93;5.73;;;-0.20;99.90;;;;;;5065640;28;20549;-56
2022/01/07 05:19:42;;;;;;;10.63;5.60;;;-0.20;99.90;;;;;;5063742;28;20932;-55
2022/01/07 05:22:08;;;;;;;12.07;6.33;;;-0.20;99.90;;;;;;5065244;28;20951;-55
2022/01/07 05:24:35;;;;;;;15.30;5.17;;;-0.10;99.90;;;;;;5064817;28;20505;-55
2022/01/07 05:27:01;;;;;;;12.80;6.23;;;0.20;99.90;;;;;;5063760;28;20492;-55
2022/01/07 05:29:33;;;;;;;14.30;5.90;;;0.30;99.90;;;;;;5068424;28;20970;-55
2022/01/07 05:32:00;;;;;;;15.00;6.53;;;0.20;99.90;;;;;;5064274;28;20860;-54
2022/01/07 05:34:26;;;;;;;10.27;5.47;;;0.10;99.90;;;;;;5057353;28;20480;-55
2022/01/07 05:36:53;;;;;;;11.83;6.17;;;0.00;99.90;;;;;;5064428;28;20537;-55
2022/01/07 05:39:19;;;;;;;9.57;5.17;;;0.00;99.90;;;;;;5059142;28;20556;-55
2022/01/07 05:41:46;;;;;;;13.70;6.30;;;-0.10;99.90;;;;;;5057648;28;20534;-55
2022/01/07 05:44:12;;;;;;;11.00;5.70;;;0.00;99.90;;;;;;5067816;28;20572;-55
2022/01/07 05:46:40;;;;;;;12.23;5.73;;;-0.10;99.90;;;;;;5063661;28;20548;-55
2022/01/07 05:49:07;;;;;;;8.47;5.80;;;-0.10;99.90;;;;;;5071089;28;20552;-55
2022/01/07 05:51:34;;;;;;;10.90;6.10;;;-0.10;99.90;;;;;;5069576;28;20918;-56
2022/01/07 05:54:00;;;;;;;7.73;5.03;;;-0.10;99.90;;;;;;5062551;28;20564;-55
2022/01/07 05:56:27;;;;;;;9.10;5.60;;;-0.10;99.90;;;;;;5060832;28;20489;-55
2022/01/07 05:58:53;;;;;;;11.17;6.27;;;-0.10;99.90;;;;;;5070416;28;20937;-55
2022/01/07 06:01:20;;;;;;;11.73;6.23;;;-0.10;99.90;;;;;;5064600;28;20497;-55
2022/01/07 06:03:48;;;;;;;8.27;5.10;;;-0.10;99.90;;;;;;5069760;28;20962;-56
2022/01/07 06:06:14;;;;;;;11.10;6.03;;;-0.10;99.90;;;;;;5068944;28;20544;-55
2022/01/07 06:08:41;;;;;;;7.43;5.27;;;-0.10;99.90;;;;;;5071803;28;20469;-56
2022/01/07 06:11:08;;;;;;;10.83;5.20;;;-0.10;99.90;;;;;;5072140;28;20561;-54
2022/01/07 06:13:34;;;;;;;11.13;5.43;;;-0.10;99.90;;;;;;5073609;28;20564;-55
2022/01/07 06:16:01;;;;;;;8.17;4.87;;;-0.10;99.90;;;;;;5067455;28;20996;-57
2022/01/07 06:18:27;;;;;;;9.93;5.10;;;0.00;99.90;;;;;;5071493;28;20904;-56
2022/01/07 06:20:55;;;;;;;11.03;4.77;;;0.00;99.90;;;;;;5070938;28;20554;-57
2022/01/07 06:23:22;;;;;;;10.40;6.40;;;0.10;99.90;;;;;;5067890;28;20505;-56
2022/01/07 06:25:49;;;;;;;14.97;6.53;;;0.20;99.90;;;;;;5060147;28;20572;-57
2022/01/07 06:28:16;;;;;;;10.40;5.17;;;0.10;99.90;;;;;;5059727;28;20833;-57
2022/01/07 06:30:43;;;;;;;10.30;5.43;;;0.00;99.90;;;;;;5060749;28;20496;-55
2022/01/07 06:33:10;;;;;;;7.30;4.80;;;0.00;99.90;;;;;;5068386;28;20569;-55
2022/01/07 06:35:36;;;;;;;13.83;5.37;;;0.00;99.90;;;;;;5066068;28;21026;-57
2022/01/07 06:38:05;;;;;;;12.10;5.00;;;0.00;99.90;;;;;;5068002;28;20557;-56
2022/01/07 06:40:32;;;;;;;9.90;4.77;;;0.00;99.90;;;;;;5065873;28;20540;-56
2022/01/07 06:42:58;;;;;;;10.50;5.47;;;0.00;99.90;;;;;;5071499;28;20514;-55
2022/01/07 06:45:25;;;;;;;9.77;4.90;;;0.00;99.90;;;;;;5063510;28;20534;-54
2022/01/07 06:47:51;;;;;;;6.60;4.53;;;0.00;99.90;;;;;;5070022;28;20892;-56
2022/01/07 06:50:18;;;;;;;11.17;5.30;;;0.00;99.90;;;;;;5073031;28;20990;-49
2022/01/07 06:52:44;;;;;;;6.30;4.97;;;0.00;99.90;;;;;;5072799;28;20994;-49
2022/01/07 06:55:13;;;;;;;9.37;6.30;;;0.00;99.90;;;;;;5063807;28;20460;-48
2022/01/07 06:57:40;;;;;;;11.40;5.80;;;0.10;99.90;;;;;;5069596;28;20599;-49
2022/01/07 07:00:08;;;;;;;16.10;6.73;;;0.00;99.90;;;;;;5069590;28;20558;-49
2022/01/07 07:02:35;;;;;;;18.67;8.90;;;0.00;99.90;;;;;;5070360;28;21019;-48
2022/01/07 07:05:01;;;;;;;5.10;4.60;;;0.00;99.90;;;;;;5060424;28;20514;-47
2022/01/07 07:07:28;;;;;;;6.77;4.97;;;0.00;99.90;;;;;;5072620;28;20528;-49
2022/01/07 07:09:54;;;;;;;11.10;5.37;;;0.00;99.90;;;;;;5069408;28;20545;-48
2022/01/07 07:12:22;;;;;;;6.57;4.33;;;0.00;99.90;;;;;;5071993;28;20564;-47
2022/01/07 07:14:50;;;;;;;10.70;6.13;;;0.00;99.90;;;;;;5066415;28;20476;-48
2022/01/07 07:17:16;;;;;;;8.93;4.70;;;0.00;99.90;;;;;;5065589;28;20552;-48
2022/01/07 07:19:43;;;;;;;5.93;4.57;;;0.10;99.90;;;;;;5067851;28;20552;-49
2022/01/07 07:22:09;;;;;;;10.40;5.13;;;0.00;99.90;;;;;;5065888;28;20554;-48
2022/01/07 07:24:36;;;;;;;8.27;4.80;;;0.10;99.90;;;;;;5065146;28;20703;-48
2022/01/07 07:27:03;;;;;;;7.27;4.90;;;0.10;99.90;;;;;;5063097;28;21037;-49
2022/01/07 07:29:30;;;;;;;13.33;5.50;;;0.10;99.90;;;;;;5057955;28;20565;-49
2022/01/07 07:31:59;;;;;;;6.03;4.37;;;0.10;99.90;;;;;;5064711;28;20567;-48
2022/01/07 07:37:13;;;;;;;9.00;4.93;;;0.10;99.90;;;;;;5065395;28;20444;-47
2022/01/07 07:39:39;;;;;;;9.40;4.90;;;0.10;99.90;;;;;;5067412;28;20457;-48
2022/01/07 07:42:06;;;;;;;9.10;4.45;;;0.10;99.90;;;;;;5068041;28;21004;-48
2022/01/07 07:44:34;;;;;;;8.63;4.53;;;0.20;99.90;;;;;;5064655;28;20610;-48
2022/01/07 07:47:02;;;;;;;10.23;5.23;;;0.20;99.90;;;;;;5069692;28;20490;-48
2022/01/07 07:49:29;;;;;;;8.97;4.70;;;0.20;99.90;;;;;;5065896;28;20541;-48
2022/01/07 07:51:55;;;;;;;12.53;6.00;;;0.30;99.90;;;;;;5066715;28;20503;-47
2022/01/07 07:54:22;;;;;;;9.90;4.70;;;0.30;99.90;;;;;;5066431;28;20561;-46
2022/01/07 07:56:48;;;;;;;10.07;5.40;;;0.40;99.90;;;;;;5063189;28;20528;-48
2022/01/07 07:59:15;;;;;;;9.63;4.53;;;0.40;99.90;;;;;;5070638;28;20543;-47
2022/01/07 08:01:43;;;;;;;6.10;4.57;;;0.40;99.90;;;;;;5069167;28;20655;-47
2022/01/07 08:04:12;;;;;;;7.33;4.80;;;0.40;99.90;;;;;;5060476;28;21041;-48
2022/01/07 08:06:38;;;;;;;12.20;5.50;;;0.40;99.90;;;;;;5065614;28;20469;-47
2022/01/07 08:09:05;;;;;;;12.03;5.20;;;0.40;92.00;;;;;;5060372;28;20552;-47
2022/01/07 08:11:38;;;;;;;6.03;4.90;;;0.40;92.90;;;;;;5061125;28;20488;-47
2022/01/07 08:16:50;;;;;;;10.40;5.10;;;0.50;99.90;;;;;;5065044;28;20456;-47
2022/01/07 08:19:16;;;;;;;13.00;5.17;;;0.50;23.30;;;;;;5060697;28;20555;-47
2022/01/07 08:21:45;;;;;;;7.40;4.00;;;0.50;28.20;;;;;;5070960;28;20928;-48
2022/01/07 08:24:12;;;;;;;10.57;4.60;;;0.50;28.10;;;;;;5062880;28;20461;-48
2022/01/07 08:26:38;;;;;;;7.87;4.47;;;0.60;29.60;;;;;;5060433;28;20544;-47
2022/01/07 08:29:07;;;;;;;7.67;5.23;;;0.60;29.60;;;;;;5068676;28;20619;-48
2022/01/07 08:37:04;;;;;;;10.00;4.60;;;0.70;40.50;;;;;;5063944;28;20456;-47
2022/01/07 08:39:31;;;;;;;16.80;4.20;;;0.80;47.70;;;;;;5065788;28;20532;-48
2022/01/07 08:41:57;;;;;;;8.40;5.13;;;0.70;44.00;;;;;;5064923;28;20568;-47
2022/01/07 08:44:26;;;;;;;7.43;4.87;;;0.80;44.80;;;;;;5059844;28;20536;-48
2022/01/07 08:46:52;;;;;;;7.87;4.27;;;0.80;48.80;;;;;;5063377;28;20453;-47
2022/01/07 08:49:21;;;;;;;10.00;4.70;;;0.90;50.40;;;;;;5066154;28;20496;-46
2022/01/07 08:51:47;;;;;;;8.53;4.30;;;0.90;63.90;;;;;;5064362;28;20462;-46
2022/01/07 08:54:14;;;;;;;7.37;4.10;;;1.00;63.80;;;;;;5058694;28;20481;-47
2022/01/07 08:56:40;;;;;;;12.23;6.37;;;1.00;71.00;;;;;;5062857;28;20560;-46
2022/01/07 08:59:07;;;;;;;13.67;5.57;;;1.00;72.50;;;;;;5061837;28;20575;-46
2022/01/07 09:01:33;;;;;;;6.10;4.30;;;1.10;67.80;;;;;;5061809;28;20958;-46
2022/01/07 09:04:01;;;;;;;13.20;5.10;;;1.10;68.50;;;;;;5063214;28;20877;-47
2022/01/07 09:06:29;;;;;;;12.80;5.20;;;1.20;80.80;;;;;;5064204;28;20457;-47
2022/01/07 09:08:55;;;;;;;11.97;5.90;;;1.20;77.70;;;;;;5066520;28;20492;-48
2022/01/07 09:11:22;;;;;;;8.93;4.40;;;1.20;80.20;;;;;;5063859;28;21050;-48
2022/01/07 09:13:51;;;;;;;8.67;4.50;;;1.30;82.00;;;;;;5068420;28;21211;-48
2022/01/07 09:16:18;;;;;;;10.10;4.90;;;1.30;78.60;;;;;;5064155;28;20906;-47
2022/01/07 09:18:45;;;;;;;7.90;4.40;;;1.30;83.80;;;;;;5068647;28;20907;-47
2022/01/07 09:21:13;;;;;;;13.20;4.30;;;1.40;82.10;;;;;;5065937;28;20496;-48
2022/01/07 09:23:41;;;;;;;13.43;5.57;;;1.40;85.10;;;;;;5071065;28;20495;-47
2022/01/07 09:26:09;;;;;;;11.73;4.70;;;1.40;85.90;;;;;;5069290;28;20460;-46
2022/01/07 09:28:35;;;;;;;10.43;4.83;;;1.40;79.40;;;;;;5073230;28;20453;-47
2022/01/07 09:31:02;;;;;;;9.23;4.30;;;1.50;90.50;;;;;;5066106;28;20491;-47
2022/01/07 09:33:29;;;;;;;8.33;5.80;;;1.50;89.30;;;;;;5066908;28;20532;-49
2022/01/07 09:35:55;;;;;;;8.90;4.90;;;1.60;88.60;;;;;;5069656;28;21663;-47
2022/01/07 09:38:22;;;;;;;6.33;4.37;;;1.60;77.90;;;;;;5067313;28;20557;-48
2022/01/07 09:40:51;;;;;;;6.77;4.80;;;1.70;97.50;;;;;;5066200;28;20471;-47
2022/01/07 09:43:17;;;;;;;7.90;4.63;;;1.80;99.90;;;;;;5073143;28;21049;-48
2022/01/07 09:45:44;;;;;;;8.30;3.80;;;1.80;99.90;;;;;;5072955;28;20540;-47
2022/01/07 09:48:11;;;;;;;6.63;4.40;;;2.00;99.90;;;;;;5063703;28;20552;-47
2022/01/07 09:50:38;;;;;;;8.57;4.27;;;2.10;99.90;;;;;;5067087;28;21045;-47
2022/01/07 09:53:06;;;;;;;11.23;5.30;;;2.10;99.90;;;;;;5067278;28;20563;-48
2022/01/07 09:55:33;;;;;;;13.73;3.83;;;2.20;99.90;;;;;;5069836;28;21090;-48
2022/01/07 09:58:01;;;;;;;7.70;4.40;;;2.20;99.90;;;;;;5062306;28;20464;-48
2022/01/07 10:00:34;;;;;;;10.80;5.10;;;2.20;99.90;;;;;;5066812;28;20493;-47
2022/01/07 10:03:03;;;;;;;10.00;4.80;;;2.60;99.90;;;;;;5069076;28;20476;-48
2022/01/07 10:05:30;;;;;;;9.47;5.27;;;3.00;99.90;;;;;;5060858;28;20545;-48
2022/01/07 10:07:57;;;;;;;7.97;4.67;;;2.90;99.90;;;;;;5069399;28;20457;-47
2022/01/07 10:10:23;;;;;;;8.07;4.90;;;2.90;99.90;;;;;;5062686;28;20537;-48
2022/01/07 10:12:56;;;;;;;8.90;4.87;;;2.80;99.90;;;;;;5070319;28;20869;-47
2022/01/07 10:15:26;;;;;;;10.10;4.70;;;2.60;99.90;;;;;;5065513;28;20485;-47
2022/01/07 10:17:59;;;;;;;6.93;4.60;;;2.50;99.90;;;;;;5070310;28;20527;-47
2022/01/07 10:20:28;;;;;;;9.03;5.10;;;2.50;99.90;;;;;;5061361;22;20588;-55
2022/01/07 10:22:57;;;;;;;7.67;4.80;;;2.50;99.90;;;;;;5028552;28;20540;-55
2022/01/07 10:25:26;;;;;;;10.00;4.53;;;2.60;99.90;;;;;;5026996;28;20448;-55
2022/01/07 10:27:58;;;;;;;12.53;5.80;;;2.60;99.90;;;;;;5027146;28;20514;-55
2022/01/07 10:30:26;;;;;;;8.40;4.90;;;2.60;99.90;;;;;;5025789;28;20568;-55
2022/01/07 10:32:54;;;;;;;10.27;5.60;;;2.60;99.90;;;;;;5026900;28;20470;-55
2022/01/07 10:35:23;;;;;;;10.93;6.10;;;2.50;99.90;;;;;;5031552;28;20574;-55
2022/01/07 10:37:53;;;;;;;10.93;5.63;;;2.40;99.90;;;;;;5025867;28;20470;-54
2022/01/07 10:40:23;;;;;;;8.10;4.83;;;2.40;99.90;;;;;;5027326;28;21059;-55
2022/01/07 10:42:51;;;;;;;11.60;4.83;;;2.30;99.90;;;;;;5030659;28;20482;-56
2022/01/07 10:45:18;;;;;;;11.30;5.93;;;2.30;99.90;;;;;;5030068;28;20459;-55
2022/01/07 10:47:51;;;;;;;8.73;5.57;;;2.30;99.90;;;;;;5020381;28;20465;-56
2022/01/07 10:50:20;;;;;;;10.87;5.33;;;2.30;99.90;;;;;;5029411;28;20482;-55
2022/01/07 10:52:47;;;;;;;11.77;5.20;;;2.30;99.90;;;;;;5029814;28;21022;-55
2022/01/07 10:55:18;;;;;;;6.83;5.53;;;2.30;99.90;;;;;;5026573;28;20511;-55
2022/01/07 10:57:46;;;;;;;9.77;6.00;;;2.30;99.90;;;;;;5027085;28;20584;-55
2022/01/07 11:00:16;;;;;;;7.80;5.67;;;2.30;99.90;;;;;;5027099;28;20565;-55
2022/01/07 11:02:42;;;;;;;7.80;5.43;;;2.40;99.90;;;;;;5024923;28;20534;-56
2022/01/07 11:05:11;;;;;;;9.17;5.73;;;2.40;99.90;;;;;;5025972;28;20544;-55
2022/01/07 11:07:38;;;;;;;11.13;5.43;;;2.50;99.90;;;;;;5029525;28;20487;-55
2022/01/07 11:10:05;;;;;;;11.07;5.47;;;2.50;99.90;;;;;;5028363;28;20514;-55
2022/01/07 11:12:33;;;;;;;7.70;4.90;;;2.50;99.90;;;;;;5033569;28;21943;-55
2022/01/07 11:15:00;;;;;;;10.20;5.83;;;2.50;99.90;;;;;;5026273;28;20597;-55
2022/01/07 11:17:27;;;;;;;11.90;5.57;;;2.50;99.90;;;;;;5030628;28;20471;-55
2022/01/07 11:19:56;;;;;;;8.90;5.03;;;2.60;99.90;;;;;;5026976;28;20495;-55
2022/01/07 11:22:25;;;;;;;6.93;4.93;;;2.60;99.90;;;;;;5030955;28;20463;-55
2022/01/07 11:25:04;;;;;;;10.13;5.20;;;2.50;99.90;;;;;;5024272;28;20469;-55
2022/01/07 11:27:31;;;;;;;9.07;6.40;;;2.50;99.90;;;;;;5027724;28;20493;-56
2022/01/07 11:30:12;;;;;;;9.60;4.67;;;2.50;96.50;;;;;;5026050;28;20558;-55
2022/01/07 11:32:40;;;;;;;12.37;5.80;;;2.50;83.00;;;;;;5029271;28;20520;-57
2022/01/07 11:35:49;;;;;;;8.80;4.87;;;2.40;68.00;;;;;;5026999;28;20924;-55
2022/01/07 11:38:44;;;;;;;8.17;5.40;;;2.40;56.60;;;;;;5026387;28;20462;-56
2022/01/07 11:41:36;;;;;;;11.27;5.10;;;2.40;48.80;;;;;;5027874;28;20493;-55
2022/01/07 11:44:11;;;;;;;10.10;6.40;;;2.30;34.40;;;;;;5025613;28;20491;-55
2022/01/07 11:46:38;;;;;;;7.80;5.50;;;2.30;79.70;;;;;;5028979;28;20493;-55
2022/01/07 11:49:05;;;;;;;9.13;5.97;;;2.20;99.90;;;;;;5028733;28;20972;-56
2022/01/07 11:51:43;;;;;;;9.03;5.50;;;2.20;99.90;;;;;;5023640;28;21055;-55
2022/01/07 11:54:20;;;;;;;11.07;5.90;;;2.20;99.90;;;;;;5029672;28;20956;-55
2022/01/07 11:56:46;;;;;;;9.70;5.87;;;2.20;99.90;;;;;;5028298;28;20490;-55
2022/01/07 11:59:26;;;;;;;7.53;5.40;;;2.10;99.90;;;;;;5026761;28;20467;-55
2022/01/07 12:02:01;;;;;;;9.37;5.67;;;2.10;99.90;;;;;;5028510;28;20532;-55
2022/01/07 12:04:29;;;;;;;6.53;5.53;;;2.00;99.90;;;;;;5028124;28;20458;-55
2022/01/07 12:06:57;;;;;;;10.10;5.83;;;2.00;99.90;;;;;;5030579;28;20542;-55
2022/01/07 12:09:40;;;;;;;12.43;7.30;;;2.00;99.90;;;;;;5029083;28;20486;-55
2022/01/07 12:12:12;;;;;;;13.33;5.47;;;1.90;99.90;;;;;;5025708;28;20470;-55
2022/01/07 12:14:42;;;;;;;9.07;5.23;;;1.90;99.90;;;;;;5026751;28;20967;-56
2022/01/07 12:17:13;;;;;;;8.53;5.20;;;1.80;99.90;;;;;;5026311;28;20566;-55
2022/01/07 12:20:16;;;;;;;11.43;5.10;;;1.80;88.20;;;;;;5023715;28;20861;-56
2022/01/07 12:22:50;;;;;;;9.83;5.30;;;1.80;81.30;;;;;;5021894;28;20465;-55
2022/01/07 12:25:18;;;;;;;12.60;6.33;;;1.80;65.50;;;;;;5027405;28;21026;-56
2022/01/07 12:27:46;;;;;;;7.17;4.97;;;1.80;63.90;;;;;;5027250;28;20546;-55
2022/01/07 12:30:13;;;;;;;7.97;4.83;;;1.70;58.60;;;;;;5023833;28;20493;-56
2022/01/07 12:32:41;;;;;;;18.37;6.50;;;1.70;56.70;;;;;;5027926;28;20458;-56
2022/01/07 12:35:10;;;;;;;7.57;5.30;;;1.70;45.60;;;;;;5025746;28;20483;-55
2022/01/07 12:37:37;;;;;;;11.90;6.47;;;1.70;36.50;;;;;;5029014;28;20493;-55
2022/01/07 12:40:06;;;;;;;8.53;5.33;;;1.70;30.10;;;;;;5023592;28;20506;-56
2022/01/07 12:42:39;;;;;;;7.83;5.90;;;1.70;20.80;;;;;;5026098;28;20545;-56
2022/01/07 12:45:06;;;;;;;6.43;5.13;;;1.70;87.40;;;;;;5026354;28;20508;-56
2022/01/07 12:47:33;;;;;;;9.77;5.90;;;1.70;99.90;;;;;;5024730;28;20549;-56
2022/01/07 12:50:02;;;;;;;12.27;6.83;;;1.70;99.90;;;;;;5021919;28;20506;-55
2022/01/07 12:52:30;;;;;;;6.73;5.20;;;1.70;99.90;;;;;;5028823;28;20496;-55
2022/01/07 12:55:00;;;;;;;7.23;6.00;;;1.70;99.90;;;;;;5027663;28;20474;-56
2022/01/07 12:57:29;;;;;;;9.00;5.77;;;1.70;99.90;;;;;;5031756;28;20517;-56
2022/01/07 13:00:12;;;;;;;9.50;6.53;;;1.70;99.90;;;;;;5030581;28;20573;-56